createdAt,value
2023-01-07T00:00:11.276Z,84.55
2023-01-07T00:02:39.831Z,82.99
2023-01-07T00:05:09.278Z,84.15
2023-01-07T00:07:37.987Z,84.63
2023-01-07T00:10:07.423Z,84.05
2023-01-07T00:12:37.241Z,84.32
2023-01-07T00:15:07.116Z,83.52
2023-01-07T00:17:35.545Z,84.06
2023-01-07T00:20:04.266Z,83.82
2023-01-07T00:22:32.705Z,83.52
2023-01-07T00:25:01.150Z,83.58
2023-01-07T00:27:29.593Z,82.93
2023-01-07T00:29:59.385Z,83.66
2023-01-07T00:32:49.004Z,83.65
2023-01-07T00:35:23.527Z,84.07
2023-01-07T00:37:52.692Z,85.70
2023-01-07T00:40:21.950Z,84.22
2023-01-07T00:43:01.435Z,84.30
2023-01-07T00:45:35.280Z,84.68
2023-01-07T00:48:05.779Z,85.09
2023-01-07T00:50:36.669Z,84.15
2023-01-07T00:53:05.828Z,84.51
2023-01-07T00:55:34.588Z,83.65
2023-01-07T00:58:03.234Z,83.83
2023-01-07T01:00:33.454Z,84.44
2023-01-07T01:03:01.900Z,83.30
2023-01-07T01:05:30.336Z,84.10
2023-01-07T01:07:59.505Z,84.22
2023-01-07T01:10:28.025Z,83.97
2023-01-07T01:12:56.465Z,85.14
2023-01-07T01:15:25.238Z,83.65
2023-01-07T01:17:55.269Z,83.62
2023-01-07T01:20:23.769Z,83.86
2023-01-07T01:22:52.192Z,84.10
2023-01-07T01:25:20.745Z,84.55
2023-01-07T01:27:49.200Z,84.09
2023-01-07T01:30:17.735Z,83.91
2023-01-07T01:32:46.361Z,83.91
2023-01-07T01:35:16.410Z,83.86
2023-01-07T01:37:44.916Z,84.39
2023-01-07T01:40:13.878Z,84.38
2023-01-07T01:42:42.320Z,84.06
2023-01-07T01:45:13.529Z,84.94
2023-01-07T01:47:48.403Z,84.50
2023-01-07T01:50:26.199Z,84.37
2023-01-07T01:52:59.793Z,84.32
2023-01-07T01:55:34.377Z,84.82
2023-01-07T01:58:08.215Z,84.98
2023-01-07T02:00:38.019Z,85.20
2023-01-07T02:03:09.999Z,86.72
2023-01-07T02:05:43.251Z,86.91
2023-01-07T02:08:11.923Z,87.56
2023-01-07T02:10:41.321Z,86.30
2023-01-07T02:13:48.120Z,85.65
2023-01-07T02:16:25.368Z,84.17
2023-01-07T02:19:25.787Z,85.35
2023-01-07T02:22:03.032Z,85.65
2023-01-07T02:25:20.901Z,86.04
2023-01-07T02:28:34.343Z,87.85
2023-01-07T02:31:54.750Z,87.46
2023-01-07T02:34:31.267Z,86.72
2023-01-07T02:37:07.985Z,86.29
2023-01-07T02:39:51.508Z,86.44
2023-01-07T02:42:28.701Z,85.57
2023-01-07T02:45:09.216Z,87.02
2023-01-07T02:47:40.597Z,86.64
2023-01-07T02:50:11.033Z,87.22
2023-01-07T02:52:39.756Z,86.79
2023-01-07T02:55:13.655Z,86.48
2023-01-07T02:58:41.306Z,86.72
2023-01-07T03:01:39.005Z,86.30
2023-01-07T03:04:33.223Z,86.80
2023-01-07T03:07:25.420Z,86.41
2023-01-07T03:10:02.062Z,86.20
2023-01-07T03:12:37.618Z,85.98
2023-01-07T03:15:12.398Z,85.96
2023-01-07T03:17:47.307Z,85.53
2023-01-07T03:20:17.504Z,86.66
2023-01-07T03:22:48.489Z,86.69
2023-01-07T03:25:20.517Z,86.23
2023-01-07T03:27:50.847Z,86.75
2023-01-07T03:30:21.442Z,86.37
2023-01-07T03:32:55.856Z,87.13
2023-01-07T03:35:26.394Z,86.93
2023-01-07T03:37:57.420Z,86.59
2023-01-07T03:40:26.303Z,87.15
2023-01-07T03:42:55.170Z,86.61
2023-01-07T03:45:26.388Z,86.23
2023-01-07T03:47:59.624Z,85.76
2023-01-07T03:50:28.097Z,85.81
2023-01-07T03:52:58.238Z,86.10
2023-01-07T03:55:26.754Z,85.64
2023-01-07T03:57:55.236Z,85.42
2023-01-07T04:00:23.942Z,84.90
2023-01-07T04:02:52.562Z,85.70
2023-01-07T04:05:21.235Z,85.29
2023-01-07T04:07:49.748Z,84.82
2023-01-07T04:10:20.667Z,85.00
2023-01-07T04:12:49.545Z,85.15
2023-01-07T04:15:18.166Z,84.82
2023-01-07T04:17:46.614Z,86.00
2023-01-07T04:20:15.082Z,85.20
2023-01-07T04:22:43.533Z,86.19
2023-01-07T04:25:12.239Z,86.08
2023-01-07T04:27:42.156Z,85.06
2023-01-07T04:30:12.242Z,85.26
2023-01-07T04:32:40.778Z,86.01
2023-01-07T04:35:10.471Z,85.51
2023-01-07T04:37:38.992Z,85.51
2023-01-07T04:40:09.667Z,85.42
2023-01-07T04:42:38.160Z,85.89
2023-01-07T04:45:09.639Z,85.93
2023-01-07T04:47:38.102Z,85.82
2023-01-07T04:50:07.825Z,85.51
2023-01-07T04:52:36.536Z,85.56
2023-01-07T04:55:05.644Z,85.27
2023-01-07T04:57:34.161Z,85.82
2023-01-07T05:00:02.669Z,86.12
2023-01-07T05:02:32.504Z,86.04
2023-01-07T05:05:01.087Z,85.40
2023-01-07T05:07:29.792Z,86.15
2023-01-07T05:09:58.597Z,85.47
2023-01-07T05:12:27.049Z,85.62
2023-01-07T05:14:55.535Z,84.97
2023-01-07T05:17:24.025Z,85.26
2023-01-07T05:19:53.990Z,85.82
2023-01-07T05:22:22.567Z,85.25
2023-01-07T05:24:51.197Z,86.17
2023-01-07T05:27:20.001Z,86.11
2023-01-07T05:29:48.451Z,85.81
2023-01-07T05:32:16.911Z,85.61
2023-01-07T05:34:45.374Z,85.40
2023-01-07T05:37:15.496Z,84.98
2023-01-07T05:39:44.172Z,85.52
2023-01-07T05:42:12.612Z,85.42
2023-01-07T05:44:42.597Z,85.67
2023-01-07T05:47:11.057Z,85.34
2023-01-07T05:49:39.767Z,85.35
2023-01-07T05:52:08.369Z,85.83
2023-01-07T05:54:38.508Z,85.30
2023-01-07T05:57:07.023Z,85.27
2023-01-07T05:59:35.817Z,85.43
2023-01-07T06:02:04.517Z,84.92
2023-01-07T06:04:34.298Z,85.03
2023-01-07T06:07:02.881Z,84.80
2023-01-07T06:09:31.341Z,85.20
2023-01-07T06:12:01.214Z,84.72
2023-01-07T06:14:29.706Z,85.20
2023-01-07T06:16:58.391Z,85.38
2023-01-07T06:19:27.549Z,85.10
2023-01-07T06:21:55.996Z,84.62
2023-01-07T06:24:24.434Z,84.34
2023-01-07T06:26:52.901Z,84.52
2023-01-07T06:29:22.735Z,85.07
2023-01-07T06:31:51.445Z,84.96
2023-01-07T06:34:19.881Z,85.03
2023-01-07T06:36:48.340Z,84.21
2023-01-07T06:39:16.927Z,84.85
2023-01-07T06:41:45.367Z,85.01
2023-01-07T06:44:13.840Z,84.95
2023-01-07T06:46:43.748Z,84.50
2023-01-07T06:49:12.432Z,85.23
2023-01-07T06:51:40.931Z,86.14
2023-01-07T06:54:09.622Z,85.33
2023-01-07T06:56:38.099Z,84.25
2023-01-07T06:59:06.571Z,84.14
2023-01-07T07:01:35.182Z,84.07
2023-01-07T07:04:05.404Z,83.74
2023-01-07T07:06:34.142Z,83.83
2023-01-07T07:09:02.876Z,84.45
2023-01-07T07:11:31.345Z,83.52
2023-01-07T07:14:00.037Z,83.31
2023-01-07T07:16:29.762Z,84.32
2023-01-07T07:18:59.889Z,85.14
2023-01-07T07:21:29.715Z,85.58
2023-01-07T07:23:58.190Z,85.68
2023-01-07T07:26:26.642Z,85.24
2023-01-07T07:28:55.066Z,85.14
2023-01-07T07:31:23.838Z,85.16
2023-01-07T07:33:52.404Z,84.70
2023-01-07T07:36:21.149Z,85.19
2023-01-07T07:38:51.053Z,84.78
2023-01-07T07:41:19.741Z,85.69
2023-01-07T07:43:48.236Z,85.25
2023-01-07T07:46:17.101Z,85.43
2023-01-07T07:48:47.842Z,84.47
2023-01-07T07:51:16.318Z,83.98
2023-01-07T07:53:45.134Z,84.15
2023-01-07T07:56:15.104Z,84.37
2023-01-07T07:58:44.160Z,84.11
2023-01-07T08:01:12.783Z,83.28
2023-01-07T08:03:41.323Z,84.13
2023-01-07T08:06:11.348Z,83.11
2023-01-07T08:08:40.055Z,83.45
2023-01-07T08:11:08.985Z,83.77
2023-01-07T08:13:38.846Z,85.67
2023-01-07T08:16:08.186Z,85.27
2023-01-07T08:18:36.909Z,85.62
2023-01-07T08:21:05.697Z,86.69
2023-01-07T08:23:34.891Z,85.62
2023-01-07T08:26:04.623Z,86.13
2023-01-07T08:28:34.034Z,85.92
2023-01-07T08:31:05.212Z,85.75
2023-01-07T08:33:37.672Z,85.73
2023-01-07T08:36:18.094Z,84.86
2023-01-07T08:38:53.198Z,86.47
2023-01-07T08:41:23.255Z,85.68
2023-01-07T08:43:52.476Z,86.17
2023-01-07T08:46:22.429Z,86.95
2023-01-07T08:48:51.154Z,87.32
2023-01-07T08:51:19.663Z,88.32
2023-01-07T08:53:48.446Z,88.06
2023-01-07T08:56:17.182Z,88.65
2023-01-07T08:58:45.702Z,87.81
2023-01-07T09:01:14.549Z,87.86
2023-01-07T09:03:44.487Z,87.89
2023-01-07T09:06:13.076Z,88.10
2023-01-07T09:08:41.796Z,88.11
2023-01-07T09:11:10.344Z,88.45
2023-01-07T09:13:39.026Z,87.97
2023-01-07T09:16:08.271Z,88.32
2023-01-07T09:18:36.994Z,86.88
2023-01-07T09:21:07.212Z,89.26
2023-01-07T09:23:35.978Z,88.32
2023-01-07T09:26:04.616Z,88.81
2023-01-07T09:28:34.285Z,88.49
2023-01-07T09:31:03.291Z,88.61
2023-01-07T09:33:32.119Z,87.70
2023-01-07T09:36:00.599Z,88.41
2023-01-07T09:38:30.685Z,89.99
2023-01-07T09:40:59.307Z,87.80
2023-01-07T09:44:01.085Z,86.72
2023-01-07T09:46:24.052Z,86.18
2023-01-07T09:48:58.045Z,86.86
2023-01-07T09:51:31.593Z,86.05
2023-01-07T09:54:04.678Z,86.82
2023-01-07T09:56:35.501Z,87.78
2023-01-07T09:59:06.771Z,87.37
2023-01-07T10:01:42.166Z,85.18
2023-01-07T10:04:26.791Z,86.35
2023-01-07T10:07:13.106Z,86.74
2023-01-07T10:09:58.786Z,88.06
2023-01-07T10:12:34.725Z,88.71
2023-01-07T10:15:34.175Z,87.90
2023-01-07T10:18:20.857Z,88.09
2023-01-07T10:20:56.159Z,86.87
2023-01-07T10:23:28.844Z,86.92
2023-01-07T10:26:28.025Z,84.16
2023-01-07T10:29:01.689Z,84.21
2023-01-07T10:31:30.922Z,82.86
2023-01-07T10:34:00.691Z,82.91
2023-01-07T10:36:32.944Z,83.28
2023-01-07T10:39:17.329Z,82.56
2023-01-07T10:41:59.302Z,81.87
2023-01-07T10:45:19.151Z,81.53
2023-01-07T10:48:23.021Z,81.35
2023-01-07T10:51:06.135Z,81.22
2023-01-07T10:53:52.426Z,80.72
2023-01-07T10:56:30.209Z,81.91
2023-01-07T10:59:00.285Z,80.26
2023-01-07T11:01:34.843Z,81.40
2023-01-07T11:04:04.109Z,80.76
2023-01-07T11:06:41.136Z,79.81
2023-01-07T11:09:15.155Z,80.67
2023-01-07T11:11:45.465Z,80.40
2023-01-07T11:14:22.213Z,79.50
2023-01-07T11:16:55.036Z,79.38
2023-01-07T11:19:24.509Z,78.57
2023-01-07T11:21:53.021Z,79.26
2023-01-07T11:24:34.383Z,77.50
2023-01-07T11:27:12.631Z,78.59
2023-01-07T11:29:45.851Z,77.60
2023-01-07T11:32:26.458Z,76.91
2023-01-07T11:34:59.739Z,75.51
2023-01-07T11:37:40.568Z,77.04
2023-01-07T11:40:29.222Z,75.64
2023-01-07T11:43:00.589Z,76.60
2023-01-07T11:45:34.363Z,75.48
2023-01-07T11:48:15.310Z,76.47
2023-01-07T11:50:56.703Z,75.28
2023-01-07T11:53:35.936Z,77.10
2023-01-07T11:56:07.604Z,75.33
2023-01-07T11:58:39.172Z,74.81
2023-01-07T12:01:17.990Z,74.46
2023-01-07T12:04:22.408Z,74.39
2023-01-07T12:06:53.028Z,74.63
2023-01-07T12:09:38.978Z,73.64
2023-01-07T12:12:37.095Z,73.93
2023-01-07T12:15:18.459Z,74.57
2023-01-07T12:17:50.703Z,74.28
2023-01-07T12:21:09.074Z,73.62
2023-01-07T12:23:51.613Z,72.55
2023-01-07T12:26:23.205Z,72.29
2023-01-07T12:29:11.309Z,73.09
2023-01-07T12:32:05.045Z,70.71
2023-01-07T12:34:48.063Z,70.35
2023-01-07T12:37:32.112Z,70.76
2023-01-07T12:40:20.250Z,69.16
2023-01-07T12:42:52.641Z,70.40
2023-01-07T12:45:28.299Z,71.39
2023-01-07T12:48:02.973Z,64.23
2023-01-07T12:50:38.659Z,67.77
2023-01-07T12:53:17.198Z,64.55
2023-01-07T12:55:51.316Z,67.45
2023-01-07T12:58:34.191Z,67.77
2023-01-07T13:01:17.634Z,67.62
2023-01-07T13:03:59.838Z,66.97
2023-01-07T13:06:44.643Z,65.13
2023-01-07T13:09:29.422Z,68.31
2023-01-07T13:12:42.419Z,62.45
2023-01-07T13:15:22.486Z,61.43
2023-01-07T13:17:53.930Z,60.41
2023-01-07T13:21:00.991Z,61.17
2023-01-07T13:24:00.753Z,61.95
2023-01-07T13:26:40.914Z,61.04
2023-01-07T13:29:34.306Z,60.59
2023-01-07T13:32:19.162Z,60.92
2023-01-07T13:35:05.218Z,63.84
2023-01-07T13:37:52.317Z,64.27
2023-01-07T13:40:47.826Z,63.03
2023-01-07T13:43:40.259Z,64.91
2023-01-07T13:46:15.438Z,61.88
2023-01-07T13:48:50.777Z,60.87
2023-01-07T13:51:28.695Z,64.80
2023-01-07T13:53:57.692Z,67.39
2023-01-07T13:56:39.072Z,66.09
2023-01-07T13:59:49.242Z,65.12
2023-01-07T14:02:22.008Z,70.76
2023-01-07T14:04:53.411Z,63.98
2023-01-07T14:07:22.283Z,66.86
2023-01-07T14:09:50.868Z,68.87
2023-01-07T14:13:17.413Z,67.75
2023-01-07T14:16:07.909Z,65.34
2023-01-07T14:19:04.602Z,65.76
2023-01-07T14:22:06.739Z,67.02
2023-01-07T14:25:18.128Z,64.38
2023-01-07T14:28:17.875Z,64.75
2023-01-07T14:30:48.640Z,67.80
2023-01-07T14:33:22.557Z,66.19
2023-01-07T14:35:57.338Z,71.55
2023-01-07T14:39:03.470Z,69.95
2023-01-07T14:41:32.024Z,73.81
2023-01-07T14:44:28.092Z,75.22
2023-01-07T14:46:57.008Z,76.99
2023-01-07T14:49:54.002Z,77.02
2023-01-07T14:53:00.827Z,77.13
2023-01-07T14:55:52.451Z,78.75
2023-01-07T14:59:00.525Z,78.61
2023-01-07T15:02:40.545Z,74.78
2023-01-07T15:05:55.868Z,73.91
2023-01-07T15:08:46.453Z,70.87
2023-01-07T15:11:40.836Z,72.20
2023-01-07T15:14:47.813Z,72.91
2023-01-07T15:17:17.512Z,76.74
2023-01-07T15:19:46.538Z,78.41
2023-01-07T15:22:40.885Z,78.21
2023-01-07T15:25:24.577Z,80.06
2023-01-07T15:28:01.051Z,77.80
2023-01-07T15:30:44.429Z,78.22
2023-01-07T15:33:35.986Z,80.05
2023-01-07T15:36:08.208Z,80.59
2023-01-07T15:38:44.696Z,81.24
2023-01-07T15:41:27.374Z,81.49
2023-01-07T15:43:56.295Z,80.88
2023-01-07T15:46:27.051Z,79.82
2023-01-07T15:49:21.484Z,81.49
2023-01-07T15:51:53.669Z,80.25
2023-01-07T15:54:31.305Z,81.74
2023-01-07T15:57:06.564Z,80.03
2023-01-07T15:59:39.143Z,82.53
2023-01-07T16:02:27.965Z,83.72
2023-01-07T16:05:01.005Z,80.99
2023-01-07T16:07:33.226Z,82.12
2023-01-07T16:10:03.167Z,80.85
2023-01-07T16:12:36.515Z,80.87
2023-01-07T16:15:28.690Z,83.94
2023-01-07T16:17:58.971Z,84.39
2023-01-07T16:20:31.378Z,82.56
2023-01-07T16:23:20.740Z,86.06
2023-01-07T16:25:55.167Z,84.83
2023-01-07T16:28:28.105Z,83.00
2023-01-07T16:30:57.819Z,84.33
2023-01-07T16:33:29.582Z,82.25
2023-01-07T16:36:01.288Z,85.22
2023-01-07T16:38:30.606Z,86.25
2023-01-07T16:41:00.727Z,85.13
2023-01-07T16:43:44.625Z,85.44
2023-01-07T16:46:24.993Z,85.78
2023-01-07T16:49:24.585Z,82.72
2023-01-07T16:51:55.812Z,86.76
2023-01-07T16:54:37.586Z,86.37
2023-01-07T16:57:33.842Z,84.69
2023-01-07T17:00:06.683Z,86.86
2023-01-07T17:02:40.344Z,86.72
2023-01-07T17:05:18.732Z,85.02
2023-01-07T17:07:49.712Z,86.04
2023-01-07T17:10:26.179Z,86.41
2023-01-07T17:13:01.768Z,86.54
2023-01-07T17:15:39.593Z,86.07
2023-01-07T17:18:30.559Z,85.70
2023-01-07T17:21:01.289Z,86.97
2023-01-07T17:23:38.458Z,87.42
2023-01-07T17:26:16.868Z,86.32
2023-01-07T17:28:50.373Z,89.30
2023-01-07T17:31:19.569Z,87.84
2023-01-07T17:33:48.542Z,86.96
2023-01-07T17:36:19.938Z,89.02
2023-01-07T17:38:48.554Z,86.67
2023-01-07T17:41:37.000Z,86.60
2023-01-07T17:44:11.472Z,88.81
2023-01-07T17:46:40.538Z,87.48
2023-01-07T17:49:11.044Z,87.01
2023-01-07T17:51:42.090Z,88.01
2023-01-07T17:54:20.183Z,85.17
2023-01-07T17:56:49.698Z,85.75
2023-01-07T17:59:22.443Z,88.44
2023-01-07T18:01:53.396Z,88.63
2023-01-07T18:04:22.446Z,88.50
2023-01-07T18:06:50.951Z,87.88
2023-01-07T18:09:19.449Z,86.44
2023-01-07T18:12:05.708Z,85.26
2023-01-07T18:14:35.587Z,86.46
2023-01-07T18:17:04.299Z,87.02
2023-01-07T18:19:33.017Z,87.27
2023-01-07T18:22:01.513Z,85.09
2023-01-07T18:24:29.977Z,86.67
2023-01-07T18:26:58.509Z,85.87
2023-01-07T18:29:27.134Z,85.36
2023-01-07T18:31:57.021Z,89.26
2023-01-07T18:34:25.584Z,86.15
2023-01-07T18:36:54.525Z,88.11
2023-01-07T18:39:23.013Z,89.22
2023-01-07T18:41:53.656Z,87.70
2023-01-07T18:44:24.653Z,86.15
2023-01-07T18:46:53.460Z,86.25
2023-01-07T18:49:23.322Z,86.39
2023-01-07T18:51:51.855Z,85.93
2023-01-07T18:54:20.517Z,87.18
2023-01-07T18:56:48.983Z,86.19
2023-01-07T18:59:17.538Z,88.23
2023-01-07T19:01:46.167Z,87.02
2023-01-07T19:04:14.818Z,88.82
2023-01-07T19:06:44.905Z,86.24
2023-01-07T19:09:13.400Z,85.70
2023-01-07T19:11:42.243Z,85.72
2023-01-07T19:14:11.104Z,87.59
2023-01-07T19:16:39.803Z,86.53
2023-01-07T19:19:09.217Z,88.17
2023-01-07T19:21:37.706Z,89.13
2023-01-07T19:24:08.646Z,89.18
2023-01-07T19:26:37.196Z,86.62
2023-01-07T19:29:05.686Z,87.55
2023-01-07T19:31:34.455Z,86.49
2023-01-07T19:34:04.396Z,89.54
2023-01-07T19:36:33.671Z,88.11
2023-01-07T19:39:02.417Z,86.93
2023-01-07T19:41:33.023Z,88.43
2023-01-07T19:44:02.282Z,88.54
2023-01-07T19:46:34.407Z,89.98
2023-01-07T19:49:03.014Z,87.36
2023-01-07T19:51:31.482Z,89.35
2023-01-07T19:53:59.976Z,88.37
2023-01-07T19:56:31.080Z,89.98
2023-01-07T19:59:01.667Z,87.43
2023-01-07T20:01:30.658Z,86.53
2023-01-07T20:04:00.385Z,86.06
2023-01-07T20:06:31.285Z,87.64
2023-01-07T20:09:00.592Z,89.15
2023-01-07T20:11:29.100Z,87.59
2023-01-07T20:13:57.844Z,87.25
2023-01-07T20:16:28.004Z,87.91
2023-01-07T20:18:57.064Z,86.27
2023-01-07T20:21:27.826Z,89.22
2023-01-07T20:23:56.791Z,90.45
2023-01-07T20:26:28.702Z,88.66
2023-01-07T20:28:58.222Z,86.72
2023-01-07T20:31:30.705Z,88.31
2023-01-07T20:33:59.479Z,88.21
2023-01-07T20:36:31.475Z,88.26
2023-01-07T20:39:05.310Z,89.00
2023-01-07T20:41:37.895Z,89.16
2023-01-07T20:44:08.793Z,87.15
2023-01-07T20:46:39.437Z,88.68
2023-01-07T20:49:08.485Z,85.76
2023-01-07T20:51:37.133Z,86.53
2023-01-07T20:54:05.924Z,87.38
2023-01-07T20:56:35.168Z,88.76
2023-01-07T20:59:04.067Z,88.01
2023-01-07T21:01:33.098Z,89.85
2023-01-07T21:04:03.277Z,86.56
2023-01-07T21:06:32.685Z,89.42
2023-01-07T21:09:01.243Z,87.77
2023-01-07T21:11:29.949Z,86.18
2023-01-07T21:13:58.402Z,88.16
2023-01-07T21:16:28.345Z,86.47
2023-01-07T21:18:57.671Z,86.82
2023-01-07T21:21:27.606Z,87.62
2023-01-07T21:23:56.354Z,89.70
2023-01-07T21:26:25.993Z,89.87
2023-01-07T21:28:56.610Z,87.09
2023-01-07T21:31:27.099Z,88.20
2023-01-07T21:33:57.747Z,89.70
2023-01-07T21:36:28.977Z,88.66
2023-01-07T21:39:00.132Z,89.41
2023-01-07T21:41:29.683Z,90.78
2023-01-07T21:43:58.732Z,90.52
2023-01-07T21:46:27.324Z,90.40
2023-01-07T21:48:56.616Z,90.93
2023-01-07T21:51:28.884Z,90.61
2023-01-07T21:53:59.251Z,88.86
2023-01-07T21:56:32.255Z,89.68
2023-01-07T21:59:01.333Z,88.29
2023-01-07T22:01:30.334Z,87.21
2023-01-07T22:03:59.950Z,86.69
2023-01-07T22:06:32.207Z,86.68
2023-01-07T22:09:02.365Z,89.23
2023-01-07T22:11:31.071Z,90.50
2023-01-07T22:14:01.133Z,88.27
2023-01-07T22:16:32.931Z,88.51
2023-01-07T22:19:02.798Z,89.46
2023-01-07T22:21:33.205Z,89.52
2023-01-07T22:24:01.665Z,89.55
2023-01-07T22:26:30.492Z,87.22
2023-01-07T22:29:03.344Z,87.61
2023-01-07T22:31:36.498Z,89.48
2023-01-07T22:34:06.779Z,89.52
2023-01-07T22:36:45.089Z,88.02
2023-01-07T22:39:21.266Z,87.41
2023-01-07T22:41:54.760Z,86.55
2023-01-07T22:44:30.420Z,85.50
2023-01-07T22:46:58.986Z,87.91
2023-01-07T22:49:30.136Z,88.19
2023-01-07T22:52:00.241Z,87.11
2023-01-07T22:54:29.497Z,87.32
2023-01-07T22:56:58.086Z,88.05
2023-01-07T22:59:26.592Z,88.71
2023-01-07T23:01:55.286Z,87.38
2023-01-07T23:04:23.845Z,90.05
2023-01-07T23:06:52.414Z,88.41
2023-01-07T23:09:22.272Z,87.57
2023-01-07T23:11:51.789Z,88.83
2023-01-07T23:14:22.988Z,86.93
2023-01-07T23:16:53.201Z,86.72
2023-01-07T23:19:23.011Z,89.06
2023-01-07T23:21:54.736Z,86.60
2023-01-07T23:24:25.705Z,85.71
2023-01-07T23:26:57.064Z,86.08
2023-01-07T23:29:25.985Z,87.50
2023-01-07T23:31:54.570Z,88.86
2023-01-07T23:34:23.072Z,87.47
2023-01-07T23:36:51.545Z,87.08
2023-01-07T23:39:20.048Z,87.38
2023-01-07T23:41:50.077Z,90.10
2023-01-07T23:44:18.565Z,87.73
2023-01-07T23:46:47.042Z,88.06
2023-01-07T23:49:15.564Z,87.85
2023-01-07T23:51:44.227Z,88.17
2023-01-07T23:54:14.709Z,88.27
2023-01-07T23:56:43.214Z,88.56
2023-01-07T23:59:13.450Z,88.83
